Time;durP1;ratioP1;P1;durP2;ratioP2;P2;SDS_P1;SDS_P2;PMS_P1;PMS_P2;Temp;Humidity;BMP_temperature;BMP_pressure;BME280_temperature;BME280_humidity;BME280_pressure;Samples;Min_cycle;Max_cycle;Signal;HPM_P1;HPM_P2
2022/03/20 00:02:30;;;;;;;;;;;;;;;-2.33;60.40;102808.74;1924623;74;20100;-60
2022/03/20 00:04:56;;;;;;;;;;;;;;;-2.34;60.43;102803.13;1918573;74;20116;-61
2022/03/20 00:07:24;;;;;;;;;;;;;;;-2.37;60.52;102810.71;1933425;74;20100;-60
2022/03/20 00:09:52;;;;;;;;;;;;;;;-2.40;60.57;102809.68;1939960;74;20160;-59
2022/03/20 00:12:20;;;;;;;;;;;;;;;-2.43;60.65;102814.72;1926690;74;20215;-59
2022/03/20 00:14:48;;;;;;;;;;;;;;;-2.45;60.72;102806.89;1921190;74;20119;-65
2022/03/20 00:17:16;;;;;;;;;;;;;;;-2.50;60.82;102809.66;1920875;73;20104;-64
2022/03/20 00:19:45;;;;;;;;;;;;;;;-2.53;60.87;102806.54;1918742;73;20151;-66
2022/03/20 00:22:13;;;;;;;;;;;;;;;-2.56;60.96;102800.34;1897393;73;20411;-63
2022/03/20 00:24:42;;;;;;;;;;;;;;;-2.58;61.05;102798.10;1887583;76;20300;-65
2022/03/20 00:27:10;;;;;;;;;;;;;;;-2.61;61.11;102806.97;1887558;76;20123;-65
2022/03/20 00:29:38;;;;;;;;;;;;;;;-2.63;61.22;102808.59;1887605;75;20145;-65
2022/03/20 00:32:08;;;;;;;;;;;;;;;-2.65;61.25;102811.51;1887531;76;20118;-65
2022/03/20 00:34:37;;;;;;;;;;;;;;;-2.66;61.23;102808.44;1887613;76;20114;-67
2022/03/20 00:37:10;;;;;;;;;;;;;;;-2.68;61.25;102810.06;1887656;75;20138;-65
2022/03/20 00:39:36;;;;;;;;;;;;;;;-2.69;61.25;102813.43;1886592;75;20137;-65
2022/03/20 00:42:05;;;;;;;;;;;;;;;-2.72;61.25;102811.19;1887821;76;20380;-64
2022/03/20 00:44:33;;;;;;;;;;;;;;;-2.74;61.24;102813.23;1887634;76;20118;-64
2022/03/20 00:47:00;;;;;;;;;;;;;;;-2.78;61.28;102813.48;1887672;75;20535;-65
2022/03/20 00:49:29;;;;;;;;;;;;;;;-2.80;61.38;102815.52;1887559;76;20099;-64
2022/03/20 00:51:57;;;;;;;;;;;;;;;-2.83;61.41;102805.92;1888045;75;20150;-65
2022/03/20 00:54:24;;;;;;;;;;;;;;;-2.84;61.38;102804.16;1889332;75;20119;-65
2022/03/20 00:56:52;;;;;;;;;;;;;;;-2.86;61.41;102806.17;1889126;75;20158;-65
2022/03/20 00:59:20;;;;;;;;;;;;;;;-2.90;61.47;102799.97;1887703;76;20114;-64
2022/03/20 01:01:48;;;;;;;;;;;;;;;-2.92;61.44;102804.17;1910675;75;20230;-66
2022/03/20 01:04:16;;;;;;;;;;;;;;;-2.95;61.48;102804.92;1918206;75;20108;-65
2022/03/20 01:06:44;;;;;;;;;;;;;;;-2.98;61.58;102807.34;1918686;75;20097;-67
2022/03/20 01:09:12;;;;;;;;;;;;;;;-2.99;61.67;102805.97;1920251;75;20311;-64
2022/03/20 01:11:40;;;;;;;;;;;;;;;-3.03;61.69;102801.06;1905499;75;20143;-65
2022/03/20 01:14:08;;;;;;;;;;;;;;;-3.06;61.74;102800.93;1918475;74;20155;-67
2022/03/20 01:16:36;;;;;;;;;;;;;;;-3.08;61.88;102810.66;1918864;74;20191;-66
2022/03/20 01:19:03;;;;;;;;;;;;;;;-3.10;61.87;102813.16;1930823;73;20125;-66
2022/03/20 01:21:31;;;;;;;;;;;;;;;-3.13;61.86;102806.58;1933453;74;20108;-65
2022/03/20 01:23:59;;;;;;;;;;;;;;;-3.16;61.86;102811.57;1921781;74;20143;-65
2022/03/20 01:26:29;;;;;;;;;;;;;;;-3.18;61.91;102808.91;1927429;74;20195;-60
2022/03/20 01:28:56;;;;;;;;;;;;;;;-3.22;61.84;102803.13;1945370;74;20378;-62
2022/03/20 01:31:24;;;;;;;;;;;;;;;-3.24;61.78;102803.87;1945171;74;20206;-61
2022/03/20 01:33:52;;;;;;;;;;;;;;;-3.27;61.75;102811.44;1920699;74;20117;-59
2022/03/20 01:36:20;;;;;;;;;;;;;;;-3.28;61.64;102809.27;1917824;74;20109;-60
2022/03/20 01:38:48;;;;;;;;;;;;;;;-3.28;61.53;102813.52;1943570;74;20374;-61
2022/03/20 01:41:16;;;;;;;;;;;;;;;-3.30;61.40;102810.47;1936528;74;20117;-61
2022/03/20 01:43:50;;;;;;;;;;;;;;;-3.31;61.31;102808.69;1935220;73;20383;-61
2022/03/20 01:46:18;;;;;;;;;;;;;;;-3.31;61.19;102809.09;1929045;73;20425;-62
2022/03/20 01:48:46;;;;;;;;;;;;;;;-3.32;61.16;102804.73;1926211;73;20100;-61
2022/03/20 01:51:15;;;;;;;;;;;;;;;-3.32;61.16;102811.18;1925833;73;20113;-60
2022/03/20 01:53:43;;;;;;;;;;;;;;;-3.34;61.14;102811.51;1926143;73;20441;-58
2022/03/20 01:56:11;;;;;;;;;;;;;;;-3.37;61.13;102812.66;1934118;73;20143;-58
2022/03/20 01:58:39;;;;;;;;;;;;;;;-3.37;61.02;102812.66;1915820;75;20117;-59
2022/03/20 02:01:07;;;;;;;;;;;;;;;-3.39;61.04;102811.29;1915837;75;20113;-57
2022/03/20 02:03:34;;;;;;;;;;;;;;;-3.39;60.91;102820.72;1917941;74;20101;-59
2022/03/20 02:06:05;;;;;;;;;;;;;;;-3.41;60.91;102823.59;1933096;74;20152;-58
2022/03/20 02:08:33;;;;;;;;;;;;;;;-3.41;60.80;102821.92;1915840;75;20112;-62
2022/03/20 02:11:01;;;;;;;;;;;;;;;-3.42;60.76;102821.42;1929170;74;20363;-60
2022/03/20 02:13:28;;;;;;;;;;;;;;;-3.43;60.64;102820.05;1944321;74;20121;-62
2022/03/20 02:15:56;;;;;;;;;;;;;;;-3.43;60.64;102819.67;1942206;73;20100;-59
2022/03/20 02:18:24;;;;;;;;;;;;;;;-3.43;60.53;102823.53;1944873;73;20155;-61
2022/03/20 02:20:53;;;;;;;;;;;;;;;-3.46;60.58;102817.34;1945163;74;20168;-62
2022/03/20 02:23:22;;;;;;;;;;;;;;;-3.45;60.44;102819.09;1944730;74;20228;-61
2022/03/20 02:25:51;;;;;;;;;;;;;;;-3.51;60.55;102823.11;1945211;74;20109;-59
2022/03/20 02:28:19;;;;;;;;;;;;;;;-3.55;60.58;102818.61;1945141;74;20117;-60
2022/03/20 02:30:47;;;;;;;;;;;;;;;-3.54;60.46;102815.63;1945157;74;20113;-60
2022/03/20 02:33:14;;;;;;;;;;;;;;;-3.58;60.53;102821.05;1944978;72;20117;-60
2022/03/20 02:35:42;;;;;;;;;;;;;;;-3.61;60.50;102822.58;1945084;74;20155;-61
2022/03/20 02:38:13;;;;;;;;;;;;;;;-3.65;60.52;102825.39;1945174;74;20116;-60
2022/03/20 02:40:40;;;;;;;;;;;;;;;-3.68;60.53;102827.80;1945210;74;20112;-60
2022/03/20 02:43:08;;;;;;;;;;;;;;;-3.72;60.53;102828.03;1944918;74;20100;-62
2022/03/20 02:45:36;;;;;;;;;;;;;;;-3.74;60.56;102827.48;1945256;74;20371;-61
2022/03/20 02:48:05;;;;;;;;;;;;;;;-3.78;60.60;102825.14;1945150;74;20180;-60
2022/03/20 02:53:21;;;;;;;;;;;;;;;-3.84;60.69;102823.92;1884033;75;20437;-59
2022/03/20 02:55:49;;;;;;;;;;;;;;;-3.88;60.54;102818.59;1875818;76;20113;-60
2022/03/20 02:58:18;;;;;;;;;;;;;;;-3.90;60.53;102810.32;1875758;76;20117;-60
2022/03/20 03:00:46;;;;;;;;;;;;;;;-3.92;60.50;102815.79;1875680;75;20137;-59
2022/03/20 03:03:14;;;;;;;;;;;;;;;-3.96;60.58;102823.75;1876090;75;20311;-61
2022/03/20 03:05:42;;;;;;;;;;;;;;;-3.99;60.58;102814.56;1876672;75;20120;-59
2022/03/20 03:10:57;;;;;;;;;;;;;;;-4.02;60.61;102828.58;1877557;75;20151;-61
2022/03/20 03:13:26;;;;;;;;;;;;;;;-4.05;60.58;102823.25;1875795;76;20187;-59
2022/03/20 03:15:56;;;;;;;;;;;;;;;-4.06;60.57;102820.17;1875853;76;20164;-60
2022/03/20 03:18:24;;;;;;;;;;;;;;;-4.07;60.55;102824.45;1875913;76;20375;-59
2022/03/20 03:20:52;;;;;;;;;;;;;;;-4.08;60.52;102825.65;1877609;75;20251;-61
2022/03/20 03:23:27;;;;;;;;;;;;;;;-4.08;60.46;102817.55;1875760;75;20117;-60
2022/03/20 03:25:52;;;;;;;;;;;;;;;-4.08;60.42;102820.50;1873497;75;20121;-61
2022/03/20 03:28:22;;;;;;;;;;;;;;;-4.10;60.44;102818.25;1875776;76;20109;-60
2022/03/20 03:30:51;;;;;;;;;;;;;;;-4.08;60.19;102830.79;1875956;76;20121;-59
2022/03/20 03:33:19;;;;;;;;;;;;;;;-4.07;60.20;102834.74;1877669;75;20121;-59
2022/03/20 03:35:53;;;;;;;;;;;;;;;-4.06;60.11;102822.75;1875723;75;20121;-60
2022/03/20 03:38:18;;;;;;;;;;;;;;;-4.07;60.12;102828.31;1874848;76;20121;-60
2022/03/20 03:40:47;;;;;;;;;;;;;;;-4.05;60.07;102829.69;1875884;76;20418;-59
2022/03/20 03:43:15;;;;;;;;;;;;;;;-4.05;60.13;102828.81;1877527;75;20160;-60
2022/03/20 03:45:44;;;;;;;;;;;;;;;-4.02;60.20;102825.09;1875779;76;20117;-59
2022/03/20 03:48:12;;;;;;;;;;;;;;;-3.96;60.01;102825.03;1875882;76;20391;-60
2022/03/20 03:50:41;;;;;;;;;;;;;;;-3.83;59.78;102826.98;1875755;76;20151;-61
2022/03/20 03:53:12;;;;;;;;;;;;;;;-3.70;59.54;102831.98;1921549;74;20344;-59
2022/03/20 03:55:45;;;;;;;;;;;;;;;-3.55;59.46;102830.20;1936832;74;20125;-60
2022/03/20 03:58:12;;;;;;;;;;;;;;;-3.38;59.30;102829.78;1947747;73;20112;-60
2022/03/20 04:00:41;;;;;;;;;;;;;;;-3.21;59.25;102825.52;1955906;73;20350;-61
2022/03/20 04:03:09;;;;;;;;;;;;;;;-3.01;58.72;102828.20;1955884;73;20334;-61
2022/03/20 04:05:37;;;;;;;;;;;;;;;-2.75;58.76;102826.91;1955875;73;20401;-59
2022/03/20 04:08:08;;;;;;;;;;;;;;;-2.52;57.99;102831.92;1954322;73;20197;-61
2022/03/20 04:10:36;;;;;;;;;;;;;;;-2.25;57.41;102834.03;1955944;73;20162;-60
2022/03/20 04:13:04;;;;;;;;;;;;;;;-2.04;56.19;102836.34;1955896;73;20143;-59
2022/03/20 04:15:32;;;;;;;;;;;;;;;-1.89;55.74;102836.16;1955880;73;20112;-59
2022/03/20 04:18:01;;;;;;;;;;;;;;;-1.72;55.60;102836.91;1955827;73;20229;-60
2022/03/20 04:20:29;;;;;;;;;;;;;;;-1.56;55.33;102844.55;1955774;73;20116;-60
2022/03/20 04:25:43;;;;;;;;;;;;;;;-1.17;55.05;102837.17;1936814;74;20118;-59
2022/03/20 04:28:14;;;;;;;;;;;;;;;-0.93;54.57;102842.92;1936698;73;20102;-59
2022/03/20 04:30:40;;;;;;;;;;;;;;;-0.68;54.19;102840.92;1936109;74;20152;-60
2022/03/20 04:33:07;;;;;;;;;;;;;;;-0.49;53.91;102842.16;1938070;73;20152;-59
2022/03/20 04:35:35;;;;;;;;;;;;;;;-0.17;53.98;102852.02;1936911;74;20161;-59
2022/03/20 04:38:04;;;;;;;;;;;;;;;-0.03;52.93;102849.14;1936876;73;20118;-60
2022/03/20 04:40:37;;;;;;;;;;;;;;;0.07;51.63;102843.02;1936798;74;20152;-61
2022/03/20 04:43:10;;;;;;;;;;;;;;;0.22;51.39;102839.70;1936839;73;20110;-58
2022/03/20 04:45:36;;;;;;;;;;;;;;;0.48;51.08;102831.61;1936447;74;20117;-59
2022/03/20 04:59:09;;;;;;;;;;;;;;;1.26;48.47;102837.31;1855292;77;20115;-60
2022/03/20 05:01:37;;;;;;;;;;;;;;;1.38;48.24;102832.92;1854360;77;20114;-58
2022/03/20 05:04:05;;;;;;;;;;;;;;;1.62;48.43;102836.72;1854444;77;20115;-58
2022/03/20 05:06:33;;;;;;;;;;;;;;;1.85;48.23;102834.85;1854464;77;20153;-60
2022/03/20 05:14:32;;;;;;;;;;;;;;;2.40;46.02;102834.70;1854426;77;20150;-61
2022/03/20 05:17:00;;;;;;;;;;;;;;;2.58;46.10;102819.61;1854427;77;20115;-61
2022/03/20 05:19:28;;;;;;;;;;;;;;;2.75;44.86;102827.89;1854418;77;20119;-61
2022/03/20 05:21:56;;;;;;;;;;;;;;;2.91;45.37;102833.06;1854455;77;20158;-63
2022/03/20 05:24:24;;;;;;;;;;;;;;;3.12;45.12;102835.75;1854586;77;20106;-64
2022/03/20 05:26:51;;;;;;;;;;;;;;;3.31;44.59;102832.78;1854454;77;20194;-61
2022/03/20 05:29:19;;;;;;;;;;;;;;;3.52;43.89;102840.66;1854424;77;20119;-62
2022/03/20 05:31:47;;;;;;;;;;;;;;;3.70;43.33;102835.88;1854472;77;20107;-62
2022/03/20 05:34:16;;;;;;;;;;;;;;;3.94;43.08;102838.58;1854548;77;20134;-62
2022/03/20 05:36:45;;;;;;;;;;;;;;;4.08;42.10;102837.16;1854445;77;20145;-62
2022/03/20 05:39:13;;;;;;;;;;;;;;;4.18;41.83;102849.97;1854381;77;20166;-61
2022/03/20 05:41:47;;;;;;;;;;;;;;;4.37;42.17;102842.99;1854440;77;20123;-61
2022/03/20 05:44:13;;;;;;;;;;;;;;;4.59;41.53;102841.69;1854323;77;20154;-62
2022/03/20 05:46:41;;;;;;;;;;;;;;;4.75;41.11;102852.41;1854483;77;20130;-62
2022/03/20 05:49:09;;;;;;;;;;;;;;;4.83;40.07;102836.45;1854415;77;20115;-62
2022/03/20 05:51:37;;;;;;;;;;;;;;;5.13;40.65;102833.97;1860223;77;20425;-62
2022/03/20 05:54:08;;;;;;;;;;;;;;;5.37;40.23;102833.05;1861867;77;20147;-59
2022/03/20 05:59:22;;;;;;;;;;;;;;;5.49;39.47;102829.74;1865476;76;20139;-60
2022/03/20 06:01:55;;;;;;;;;;;;;;;5.53;38.02;102826.75;1865311;77;20179;-58
2022/03/20 06:04:19;;;;;;;;;;;;;;;5.55;38.18;102827.65;1864470;77;20274;-60
2022/03/20 06:06:50;;;;;;;;;;;;;;;5.67;37.37;102827.84;1865492;77;20175;-60
2022/03/20 06:09:18;;;;;;;;;;;;;;;5.92;36.83;102836.03;1865230;77;20415;-60
2022/03/20 06:11:46;;;;;;;;;;;;;;;5.92;35.98;102830.80;1865444;77;20174;-57
2022/03/20 06:14:13;;;;;;;;;;;;;;;6.02;36.05;102824.88;1865462;77;20139;-57
2022/03/20 06:16:43;;;;;;;;;;;;;;;6.12;36.63;102832.00;1865379;77;20143;-61
2022/03/20 06:19:10;;;;;;;;;;;;;;;6.45;36.88;102809.70;1865176;77;20173;-60
2022/03/20 06:21:38;;;;;;;;;;;;;;;6.76;36.51;102829.23;1865534;77;20138;-60
2022/03/20 06:24:06;;;;;;;;;;;;;;;6.82;35.81;102828.41;1865445;77;20242;-59
2022/03/20 06:26:34;;;;;;;;;;;;;;;7.13;35.81;102831.33;1865467;77;20147;-59
2022/03/20 06:29:05;;;;;;;;;;;;;;;7.27;34.99;102844.13;1864257;75;20130;-60
2022/03/20 06:31:32;;;;;;;;;;;;;;;7.31;33.83;102822.31;1865527;77;20146;-60
2022/03/20 06:34:00;;;;;;;;;;;;;;;7.37;34.55;102835.03;1865479;77;20146;-59
2022/03/20 06:36:28;;;;;;;;;;;;;;;7.58;34.91;102829.95;1860902;77;20102;-59
2022/03/20 06:38:56;;;;;;;;;;;;;;;7.76;33.96;102835.73;1860393;77;20173;-59
2022/03/20 06:41:24;;;;;;;;;;;;;;;7.68;33.48;102839.62;1860393;77;20178;-62
2022/03/20 06:43:51;;;;;;;;;;;;;;;7.71;33.36;102843.58;1860283;77;20122;-61
2022/03/20 06:46:21;;;;;;;;;;;;;;;7.91;32.90;102834.53;1862566;77;20143;-61
2022/03/20 06:48:49;;;;;;;;;;;;;;;7.76;32.05;102842.73;1865332;77;20448;-60
2022/03/20 06:51:17;;;;;;;;;;;;;;;7.79;32.70;102838.82;1865356;76;20181;-59
2022/03/20 06:53:45;;;;;;;;;;;;;;;8.16;32.14;102841.64;1865810;77;20411;-61
2022/03/20 06:56:13;;;;;;;;;;;;;;;8.20;31.42;102836.40;1865018;77;20147;-60
2022/03/20 06:58:41;;;;;;;;;;;;;;;8.25;31.55;102837.75;1865399;77;20147;-60
2022/03/20 07:01:09;;;;;;;;;;;;;;;8.49;30.44;102835.68;1865475;77;20175;-60
2022/03/20 07:03:37;;;;;;;;;;;;;;;8.76;31.35;102845.39;1865435;77;20228;-60
2022/03/20 07:06:05;;;;;;;;;;;;;;;9.04;29.45;102834.92;1865093;77;20182;-59
2022/03/20 07:08:33;;;;;;;;;;;;;;;9.14;29.24;102837.11;1860594;77;20123;-60
2022/03/20 07:11:01;;;;;;;;;;;;;;;9.17;29.33;102831.87;1860364;77;20205;-61
2022/03/20 07:16:15;;;;;;;;;;;;;;;9.36;29.44;102828.79;1860650;77;20400;-59
2022/03/20 07:18:43;;;;;;;;;;;;;;;9.55;28.86;102829.19;1860308;77;20158;-60
2022/03/20 07:21:11;;;;;;;;;;;;;;;9.77;28.58;102827.84;1860395;77;20106;-61
2022/03/20 07:23:38;;;;;;;;;;;;;;;9.76;27.83;102816.91;1860633;77;20126;-60
2022/03/20 07:31:38;;;;;;;;;;;;;;;9.51;26.87;102828.77;1860274;77;20119;-60
2022/03/20 07:34:07;;;;;;;;;;;;;;;9.59;28.19;102827.02;1860547;77;20157;-58
2022/03/20 07:36:34;;;;;;;;;;;;;;;9.99;27.92;102828.22;1860363;77;20150;-59
2022/03/20 07:39:03;;;;;;;;;;;;;;;10.03;27.62;102820.77;1850860;77;20255;-59
2022/03/20 07:41:31;;;;;;;;;;;;;;;10.18;26.92;102814.98;1851983;77;20141;-58
2022/03/20 07:43:59;;;;;;;;;;;;;;;10.00;27.06;102822.53;1860315;77;20122;-59
2022/03/20 07:46:27;;;;;;;;;;;;;;;9.88;26.57;102809.41;1860322;77;20154;-58
2022/03/20 07:48:55;;;;;;;;;;;;;;;10.22;26.14;102823.33;1860605;77;20157;-58
2022/03/20 07:51:23;;;;;;;;;;;;;;;10.27;25.71;102802.23;1850984;77;20163;-59
2022/03/20 07:53:51;;;;;;;;;;;;;;;10.45;25.26;102818.42;1836871;78;20136;-60
2022/03/20 07:56:21;;;;;;;;;;;;;;;10.27;25.14;102801.78;1836673;78;20125;-60
2022/03/20 07:58:48;;;;;;;;;;;;;;;10.69;25.71;102801.14;1836131;78;20141;-60
2022/03/20 08:01:16;;;;;;;;;;;;;;;11.17;24.95;102791.56;1836688;77;20155;-61
2022/03/20 08:03:43;;;;;;;;;;;;;;;11.28;24.19;102798.06;1836690;77;20108;-61
2022/03/20 08:06:11;;;;;;;;;;;;;;;11.15;24.03;102798.16;1836646;78;20121;-59
2022/03/20 08:08:43;;;;;;;;;;;;;;;11.13;24.41;102786.75;1836788;77;20125;-60
2022/03/20 08:11:10;;;;;;;;;;;;;;;11.10;23.60;102797.34;1836040;78;20128;-60
2022/03/20 08:13:38;;;;;;;;;;;;;;;11.06;23.47;102797.37;1836643;77;20155;-59
2022/03/20 08:16:06;;;;;;;;;;;;;;;11.26;24.22;102805.11;1836694;78;20108;-60
2022/03/20 08:18:34;;;;;;;;;;;;;;;11.46;23.48;102800.52;1836728;78;20117;-59
2022/03/20 08:21:03;;;;;;;;;;;;;;;11.53;23.64;102803.53;1836660;78;20120;-59
2022/03/20 08:23:30;;;;;;;;;;;;;;;11.44;23.26;102794.39;1836649;78;20112;-59
2022/03/20 08:25:58;;;;;;;;;;;;;;;11.24;23.51;102794.57;1836089;78;20202;-60
2022/03/20 08:28:26;;;;;;;;;;;;;;;11.27;24.10;102793.66;1836773;78;20121;-58
2022/03/20 08:30:54;;;;;;;;;;;;;;;11.43;24.02;102786.48;1836671;78;20120;-60
2022/03/20 08:33:22;;;;;;;;;;;;;;;11.09;22.71;102802.63;1836694;78;20116;-59
2022/03/20 08:35:51;;;;;;;;;;;;;;;10.71;23.23;102789.28;1836082;78;20125;-58
2022/03/20 08:38:18;;;;;;;;;;;;;;;10.62;23.71;102796.37;1836543;77;20124;-60
2022/03/20 08:40:46;;;;;;;;;;;;;;;10.58;24.10;102787.17;1836637;78;20151;-60
2022/03/20 08:43:15;;;;;;;;;;;;;;;10.49;23.35;102798.63;1836648;78;20120;-60
2022/03/20 08:45:44;;;;;;;;;;;;;;;10.35;24.07;102789.95;1836158;78;20124;-59
2022/03/20 08:48:12;;;;;;;;;;;;;;;10.38;23.60;102794.77;1836714;78;20370;-58
2022/03/20 08:50:44;;;;;;;;;;;;;;;10.54;24.16;102796.84;1836756;78;20124;-60
2022/03/20 08:53:10;;;;;;;;;;;;;;;10.79;23.48;102788.80;1856858;76;20154;-59
2022/03/20 08:55:39;;;;;;;;;;;;;;;11.13;23.39;102792.02;1860652;77;20159;-58
2022/03/20 08:58:07;;;;;;;;;;;;;;;11.38;23.78;102791.37;1860420;77;20115;-59
2022/03/20 09:00:35;;;;;;;;;;;;;;;11.47;23.21;102789.52;1860738;77;20118;-60
2022/03/20 09:03:02;;;;;;;;;;;;;;;11.57;23.01;102796.01;1860350;77;20102;-60
2022/03/20 09:05:30;;;;;;;;;;;;;;;11.61;23.22;102794.66;1854663;77;20123;-61
2022/03/20 09:07:58;;;;;;;;;;;;;;;11.72;23.02;102787.05;1845498;77;20184;-60
2022/03/20 09:10:26;;;;;;;;;;;;;;;11.54;22.38;102799.13;1834803;78;20180;-61
2022/03/20 09:13:00;;;;;;;;;;;;;;;11.06;22.50;102806.59;1834625;77;20179;-60
2022/03/20 09:15:23;;;;;;;;;;;;;;;10.76;22.79;102809.89;1833542;77;20145;-61
2022/03/20 09:20:38;;;;;;;;;;;;;;;11.24;23.46;102796.34;1832965;78;20245;-63
2022/03/20 09:23:07;;;;;;;;;;;;;;;11.56;23.37;102793.38;1858907;77;20401;-64
2022/03/20 09:25:35;;;;;;;;;;;;;;;11.66;22.98;102798.14;1865441;77;20146;-66
2022/03/20 09:28:04;;;;;;;;;;;;;;;11.73;23.03;102787.91;1864428;77;20178;-64
2022/03/20 09:30:33;;;;;;;;;;;;;;;11.96;22.93;102791.20;1860311;77;20491;-61
2022/03/20 09:33:02;;;;;;;;;;;;;;;12.18;23.31;102779.05;1860366;77;20419;-60
2022/03/20 09:35:30;;;;;;;;;;;;;;;12.20;23.02;102775.94;1860365;77;20119;-60
2022/03/20 09:37:58;;;;;;;;;;;;;;;12.24;23.04;102786.89;1860629;77;20252;-63
2022/03/20 09:40:26;;;;;;;;;;;;;;;12.12;22.88;102797.17;1859380;77;20127;-63
2022/03/20 09:42:55;;;;;;;;;;;;;;;12.08;21.96;102794.58;1833157;78;20168;-62
2022/03/20 09:45:23;;;;;;;;;;;;;;;11.68;22.23;102793.72;1847973;77;20166;-61
2022/03/20 09:47:52;;;;;;;;;;;;;;;11.41;22.52;102786.50;1865461;76;20168;-60
2022/03/20 09:50:20;;;;;;;;;;;;;;;11.70;22.80;102774.77;1864804;76;20151;-67
2022/03/20 09:52:48;;;;;;;;;;;;;;;11.86;22.88;102775.03;1850144;77;20266;-65
2022/03/20 09:55:16;;;;;;;;;;;;;;;12.05;22.12;102786.72;1836691;78;20133;-62
2022/03/20 09:57:44;;;;;;;;;;;;;;;11.83;22.20;102784.75;1836691;78;20402;-63
2022/03/20 10:00:15;;;;;;;;;;;;;;;11.73;22.40;102780.00;1836694;77;20155;-64
2022/03/20 10:02:42;;;;;;;;;;;;;;;11.72;22.59;102780.91;1836703;77;20124;-64
2022/03/20 10:05:10;;;;;;;;;;;;;;;11.55;22.84;102779.32;1836668;77;20116;-65
2022/03/20 10:07:43;;;;;;;;;;;;;;;11.39;22.72;102777.73;1836705;78;20220;-65
2022/03/20 10:10:12;;;;;;;;;;;;;;;11.23;22.45;102782.72;1836815;78;20155;-65
2022/03/20 10:12:45;;;;;;;;;;;;;;;11.01;22.82;102768.39;1836765;77;20191;-65
2022/03/20 10:15:30;;;;;;;;;;;;;;;10.87;23.08;102763.25;1836714;78;20430;-62
2022/03/20 10:18:08;;;;;;;;;;;;;;;10.86;22.94;102768.53;1745879;82;20192;-62
2022/03/20 10:20:38;;;;;;;;;;;;;;;11.16;23.40;102771.37;1814498;77;20187;-62
2022/03/20 10:23:07;;;;;;;;;;;;;;;11.27;23.32;102770.82;1835701;77;20152;-63
2022/03/20 10:25:35;;;;;;;;;;;;;;;11.16;22.85;102757.73;1831870;77;20121;-61
2022/03/20 10:28:03;;;;;;;;;;;;;;;10.95;23.09;102753.50;1836834;77;20124;-61
2022/03/20 10:30:31;;;;;;;;;;;;;;;10.96;23.52;102752.63;1836710;77;20108;-60
2022/03/20 10:33:01;;;;;;;;;;;;;;;11.14;23.63;102742.37;1836616;77;20171;-62
2022/03/20 10:35:30;;;;;;;;;;;;;;;11.09;23.13;102742.85;1836698;77;20129;-62
2022/03/20 10:37:57;;;;;;;;;;;;;;;11.04;23.14;102739.38;1836720;78;20434;-60
2022/03/20 10:40:29;;;;;;;;;;;;;;;10.62;22.99;102745.42;1836691;78;20108;-61
2022/03/20 10:43:14;;;;;;;;;;;;;;;10.13;23.02;102748.34;1836938;78;20375;-61
2022/03/20 10:46:02;;;;;;;;;;;;;;;9.73;23.26;102746.73;1836802;77;20196;-61
2022/03/20 10:48:37;;;;;;;;;;;;;;;9.54;24.21;102745.06;1836818;77;20394;-62
2022/03/20 10:51:06;;;;;;;;;;;;;;;9.60;24.20;102748.53;1836743;77;20120;-62
2022/03/20 10:53:34;;;;;;;;;;;;;;;9.39;24.51;102742.03;1833867;77;20155;-63
2022/03/20 10:56:06;;;;;;;;;;;;;;;9.26;24.55;102743.36;1831149;78;20379;-61
2022/03/20 10:58:39;;;;;;;;;;;;;;;9.14;24.59;102739.42;1831202;78;20124;-61
2022/03/20 11:01:09;;;;;;;;;;;;;;;9.44;24.97;102733.67;1831244;78;20124;-61
2022/03/20 11:03:38;;;;;;;;;;;;;;;9.60;24.88;102743.72;1831165;78;20129;-61
2022/03/20 11:06:07;;;;;;;;;;;;;;;9.59;24.54;102738.91;1830771;78;20147;-60
2022/03/20 11:08:37;;;;;;;;;;;;;;;9.62;24.21;102733.62;1831196;77;20124;-60
2022/03/20 11:11:06;;;;;;;;;;;;;;;9.65;24.36;102725.73;1831284;78;20371;-61
2022/03/20 11:13:39;;;;;;;;;;;;;;;9.62;24.39;102728.80;1831175;78;20339;-61
2022/03/20 11:16:08;;;;;;;;;;;;;;;9.71;24.83;102730.53;1831249;77;20151;-61
2022/03/20 11:18:38;;;;;;;;;;;;;;;9.68;24.54;102727.45;1831196;78;20390;-61
2022/03/20 11:21:06;;;;;;;;;;;;;;;9.46;24.50;102735.44;1831186;78;20155;-63
2022/03/20 11:23:34;;;;;;;;;;;;;;;9.22;24.42;102741.62;1831233;78;20163;-62
2022/03/20 11:26:03;;;;;;;;;;;;;;;8.91;24.84;102737.23;1831178;78;20132;-63
2022/03/20 11:28:32;;;;;;;;;;;;;;;8.72;25.22;102732.42;1831150;77;20427;-63
2022/03/20 11:31:00;;;;;;;;;;;;;;;8.58;25.11;102733.30;1831002;78;20149;-62
2022/03/20 11:33:28;;;;;;;;;;;;;;;8.38;24.70;102737.16;1831064;78;20203;-62
2022/03/20 11:35:57;;;;;;;;;;;;;;;8.14;25.15;102734.49;1831195;77;20128;-62
2022/03/20 11:38:25;;;;;;;;;;;;;;;7.95;25.65;102730.91;1827097;76;20144;-62
2022/03/20 11:41:13;;;;;;;;;;;;;;;7.91;25.73;102730.02;1826248;79;20418;-61
2022/03/20 11:43:43;;;;;;;;;;;;;;;7.71;25.83;102729.52;1826442;79;20149;-60
2022/03/20 11:46:33;;;;;;;;;;;;;;;7.61;26.14;102713.72;1827442;77;20176;-59
2022/03/20 11:49:17;;;;;;;;;;;;;;;7.39;26.08;102715.35;1826699;79;20183;-64
2022/03/20 11:51:53;;;;;;;;;;;;;;;7.29;26.30;102717.05;1827356;79;20145;-63
2022/03/20 11:54:23;;;;;;;;;;;;;;;7.16;26.53;102721.33;1828197;76;20623;-62
2022/03/20 11:56:52;;;;;;;;;;;;;;;6.91;26.42;102711.96;1802469;77;20158;-63
2022/03/20 11:59:34;;;;;;;;;;;;;;;6.77;27.04;102703.14;1798817;80;20373;-63
2022/03/20 12:02:02;;;;;;;;;;;;;;;6.59;26.97;102714.33;1803114;78;20167;-63
2022/03/20 12:04:33;;;;;;;;;;;;;;;6.47;27.59;102711.58;1829499;78;20179;-63
2022/03/20 12:07:10;;;;;;;;;;;;;;;6.41;27.51;102713.71;1830015;78;20152;-63
2022/03/20 12:09:39;;;;;;;;;;;;;;;6.31;27.75;102710.13;1829605;75;20144;-63
2022/03/20 12:12:14;;;;;;;;;;;;;;;6.28;27.31;102701.37;1829687;76;20140;-63
2022/03/20 12:14:43;;;;;;;;;;;;;;;6.22;27.47;102701.32;1830186;78;20175;-63
2022/03/20 12:17:11;;;;;;;;;;;;;;;6.15;27.76;102701.23;1830001;78;20263;-64
2022/03/20 12:19:48;;;;;;;;;;;;;;;6.19;28.10;102696.47;1830247;78;20179;-63
2022/03/20 12:22:18;;;;;;;;;;;;;;;6.26;28.50;102695.25;1829129;77;20163;-63
2022/03/20 12:24:57;;;;;;;;;;;;;;;6.26;28.17;102700.05;1828989;77;20144;-63
2022/03/20 12:27:26;;;;;;;;;;;;;;;6.21;28.26;102699.55;1830215;78;20180;-64
2022/03/20 12:29:58;;;;;;;;;;;;;;;6.14;28.51;102692.96;1830307;78;20144;-63
2022/03/20 12:32:28;;;;;;;;;;;;;;;6.06;28.36;102697.21;1830356;78;20161;-63
2022/03/20 12:35:03;;;;;;;;;;;;;;;6.00;28.49;102695.84;1830521;78;20402;-63
2022/03/20 12:37:33;;;;;;;;;;;;;;;5.98;28.70;102687.11;1829811;77;20235;-63
2022/03/20 12:40:05;;;;;;;;;;;;;;;5.88;28.68;102686.51;1823746;78;20144;-64
2022/03/20 12:42:33;;;;;;;;;;;;;;;5.78;28.86;102686.40;1830233;78;20148;-64
2022/03/20 12:45:03;;;;;;;;;;;;;;;5.82;29.33;102695.60;1803826;78;20139;-63
2022/03/20 12:47:31;;;;;;;;;;;;;;;5.82;29.68;102691.67;1799002;80;20155;-61
2022/03/20 12:50:06;;;;;;;;;;;;;;;5.82;29.61;102706.92;1798913;80;20186;-61
2022/03/20 12:52:35;;;;;;;;;;;;;;;5.76;29.52;102702.50;1798830;80;20147;-61
2022/03/20 12:55:12;;;;;;;;;;;;;;;5.67;29.68;102688.01;1814914;78;20224;-60
2022/03/20 12:57:43;;;;;;;;;;;;;;;5.63;29.94;102685.36;1825785;79;20149;-61
2022/03/20 13:00:15;;;;;;;;;;;;;;;5.55;30.24;102683.92;1826070;79;20188;-60
2022/03/20 13:03:01;;;;;;;;;;;;;;;5.48;30.37;102676.86;1826012;79;20415;-61
2022/03/20 13:05:29;;;;;;;;;;;;;;;5.47;30.58;102686.88;1825950;78;20177;-60
2022/03/20 13:07:57;;;;;;;;;;;;;;;5.43;31.02;102682.48;1825905;78;20141;-60
2022/03/20 13:10:26;;;;;;;;;;;;;;;5.42;31.06;102685.49;1825937;79;20134;-60
2022/03/20 13:13:02;;;;;;;;;;;;;;;5.48;30.88;102675.15;1826001;79;20149;-60
2022/03/20 13:15:31;;;;;;;;;;;;;;;5.47;30.92;102675.13;1825864;79;20462;-61
2022/03/20 13:17:59;;;;;;;;;;;;;;;5.44;31.04;102683.81;1826053;79;20459;-61
2022/03/20 13:20:29;;;;;;;;;;;;;;;5.45;31.47;102676.41;1826110;79;20404;-61
2022/03/20 13:22:57;;;;;;;;;;;;;;;5.41;31.62;102670.26;1825925;78;20145;-60
2022/03/20 13:25:26;;;;;;;;;;;;;;;5.40;31.90;102673.75;1825922;79;20137;-61
2022/03/20 13:27:54;;;;;;;;;;;;;;;5.41;31.81;102667.64;1825886;78;20423;-61
2022/03/20 13:30:27;;;;;;;;;;;;;;;5.34;31.69;102672.34;1825961;79;20129;-60